createdAt,value
2022-10-18T00:00:48.940Z,102217.31
2022-10-18T00:03:15.774Z,102214.59
2022-10-18T00:05:42.524Z,102218.06
2022-10-18T00:08:09.390Z,102214.38
2022-10-18T00:10:36.313Z,102214.16
2022-10-18T00:13:03.232Z,102203.28
2022-10-18T00:15:30.045Z,102205.22
2022-10-18T00:17:56.861Z,102207.94
2022-10-18T00:20:24.859Z,102202.16
2022-10-18T00:22:51.664Z,102200.41
2022-10-18T00:25:19.034Z,102198.56
2022-10-18T00:27:45.796Z,102198.44
2022-10-18T00:30:13.481Z,102202.84
2022-10-18T00:32:42.286Z,102200.03
2022-10-18T00:35:09.735Z,102207.19
2022-10-18T00:37:36.831Z,102202.59
2022-10-18T00:40:05.243Z,102207.00
2022-10-18T00:42:36.217Z,102209.72
2022-10-18T00:45:24.390Z,102205.03
2022-10-18T00:47:58.230Z,102206.00
2022-10-18T00:50:28.431Z,102197.84
2022-10-18T00:53:00.784Z,102201.44
2022-10-18T00:55:29.065Z,102208.72
2022-10-18T00:57:57.232Z,102203.28
2022-10-18T01:00:24.380Z,102203.50
2022-10-18T01:02:51.128Z,102206.63
2022-10-18T01:05:19.982Z,102206.03
2022-10-18T01:07:58.425Z,102212.16
2022-10-18T01:10:46.977Z,102216.53
2022-10-18T01:13:36.336Z,102223.72
2022-10-18T01:16:20.330Z,102227.41
2022-10-18T01:19:02.463Z,102231.09
2022-10-18T01:22:01.798Z,102225.75
2022-10-18T01:24:48.857Z,102215.88
2022-10-18T01:27:18.671Z,102225.88
2022-10-18T01:30:12.289Z,102219.44
2022-10-18T01:32:49.194Z,102218.69
2022-10-18T01:35:25.352Z,102219.66
2022-10-18T01:37:58.561Z,102220.63
2022-10-18T01:40:26.979Z,102211.72
2022-10-18T01:42:54.192Z,102223.44
2022-10-18T01:45:24.105Z,102222.78
2022-10-18T01:47:54.366Z,102220.06
2022-10-18T01:50:34.828Z,102219.09
2022-10-18T01:53:02.556Z,102228.03
2022-10-18T01:55:44.028Z,102225.22
2022-10-18T01:58:30.973Z,102220.63
2022-10-18T02:01:28.366Z,102216.16
2022-10-18T02:04:06.834Z,102217.16
2022-10-18T02:06:44.922Z,102219.88
2022-10-18T02:09:22.750Z,102224.31
2022-10-18T02:11:55.054Z,102217.16
2022-10-18T02:14:26.001Z,102221.59
2022-10-18T02:16:59.965Z,102222.59
2022-10-18T02:19:55.858Z,102222.59
2022-10-18T02:22:28.154Z,102228.03
2022-10-18T02:24:59.911Z,102223.56
2022-10-18T02:27:26.833Z,102216.38
2022-10-18T02:29:54.247Z,102217.34
2022-10-18T02:33:31.797Z,102212.09
2022-10-18T02:36:11.498Z,102215.81
2022-10-18T02:38:42.083Z,102218.63
2022-10-18T02:41:08.889Z,102218.63
2022-10-18T02:43:35.658Z,102216.75
2022-10-18T02:46:03.748Z,102212.22
2022-10-18T02:48:30.560Z,102226.69
2022-10-18T02:50:57.294Z,102226.69
2022-10-18T02:53:24.006Z,102230.38
2022-10-18T02:55:50.740Z,102224.16
2022-10-18T02:58:17.498Z,102231.44
2022-10-18T03:00:44.235Z,102236.78
2022-10-18T03:03:10.953Z,102235.03
2022-10-18T03:05:37.675Z,102224.16
2022-10-18T03:08:04.770Z,102232.13
2022-10-18T03:10:31.597Z,102228.22
2022-10-18T03:12:58.368Z,102235.41
2022-10-18T03:15:25.196Z,102230.84
2022-10-18T03:17:52.158Z,102233.47
2022-10-18T03:20:19.775Z,102242.50
2022-10-18T03:22:46.588Z,102242.50
2022-10-18T03:25:13.338Z,102238.91
2022-10-18T03:27:40.084Z,102233.47
2022-10-18T03:30:08.579Z,102229.75
2022-10-18T03:32:35.496Z,102236.09
2022-10-18T03:35:02.651Z,102234.34
2022-10-18T03:37:29.509Z,102235.19
2022-10-18T03:39:56.209Z,102240.63
2022-10-18T03:42:23.190Z,102244.34
2022-10-18T03:44:49.986Z,102243.50
2022-10-18T03:47:16.933Z,102239.09
2022-10-18T03:49:43.729Z,102237.38
2022-10-18T03:52:10.496Z,102237.38
2022-10-18T03:54:37.230Z,102237.38
2022-10-18T03:57:04.082Z,102235.63
2022-10-18T03:59:30.779Z,102221.25
2022-10-18T04:01:57.554Z,102227.75
2022-10-18T04:04:24.391Z,102225.03
2022-10-18T04:06:51.134Z,102221.44
2022-10-18T04:09:18.092Z,102216.00
2022-10-18T04:11:44.789Z,102220.47
2022-10-18T04:14:11.750Z,102223.19
2022-10-18T04:16:38.506Z,102228.63
2022-10-18T04:19:05.253Z,102231.34
2022-10-18T04:21:31.952Z,102221.44
2022-10-18T04:23:58.770Z,102226.88
2022-10-18T04:26:25.760Z,102220.56
2022-10-18T04:28:52.628Z,102225.16
2022-10-18T04:31:19.441Z,102235.34
2022-10-18T04:33:46.191Z,102239.91
2022-10-18T04:36:13.035Z,102237.19
2022-10-18T04:38:40.121Z,102239.13
2022-10-18T04:41:06.959Z,102241.06
2022-10-18T04:43:33.749Z,102243.78
2022-10-18T04:46:00.681Z,102239.34
2022-10-18T04:48:27.508Z,102240.31
2022-10-18T04:50:54.350Z,102242.34
2022-10-18T04:53:21.127Z,102245.25
2022-10-18T04:55:50.209Z,102239.16
2022-10-18T04:58:18.502Z,102231.22
2022-10-18T05:00:45.961Z,102224.97
2022-10-18T05:03:14.463Z,102228.63
2022-10-18T05:06:00.959Z,102229.72
2022-10-18T05:08:29.240Z,102239.91
2022-10-18T05:10:56.077Z,102243.78
2022-10-18T05:13:22.991Z,102241.28
2022-10-18T05:15:49.816Z,102243.41
2022-10-18T05:18:16.625Z,102243.81
2022-10-18T05:20:43.513Z,102255.63
2022-10-18T05:23:10.905Z,102252.16
2022-10-18T05:25:42.578Z,102248.66
2022-10-18T05:28:21.115Z,102254.28
2022-10-18T05:31:05.856Z,102261.66
2022-10-18T05:33:34.010Z,102264.47
2022-10-18T05:36:01.079Z,102259.13
2022-10-18T05:38:30.917Z,102258.16
2022-10-18T05:40:59.545Z,102265.31
2022-10-18T05:43:30.065Z,102263.59
2022-10-18T05:45:57.030Z,102260.09
2022-10-18T05:48:23.864Z,102263.78
2022-10-18T05:50:50.909Z,102261.28
2022-10-18T05:53:35.879Z,102267.94
2022-10-18T05:56:04.686Z,102273.66
2022-10-18T05:58:31.456Z,102272.09
2022-10-18T06:01:03.011Z,102270.44
2022-10-18T06:03:30.925Z,102270.53
2022-10-18T06:06:11.107Z,102283.31
2022-10-18T06:08:40.359Z,102279.91
2022-10-18T06:11:14.721Z,102279.06
2022-10-18T06:13:44.202Z,102274.59
2022-10-18T06:16:13.811Z,102279.22
2022-10-18T06:18:41.918Z,102282.94
2022-10-18T06:21:09.893Z,102276.72
2022-10-18T06:23:36.753Z,102291.44
2022-10-18T06:26:09.698Z,102282.50
2022-10-18T06:28:38.049Z,102287.94
2022-10-18T06:31:06.544Z,102294.25
2022-10-18T06:33:35.597Z,102304.13
2022-10-18T06:36:14.284Z,102302.28
2022-10-18T06:38:41.596Z,102313.97
2022-10-18T06:41:09.020Z,102318.22
2022-10-18T06:43:35.806Z,102325.41
2022-10-18T06:46:06.748Z,102327.00
2022-10-18T06:48:38.535Z,102324.28
2022-10-18T06:51:07.549Z,102325.03
2022-10-18T06:53:44.192Z,102322.25
2022-10-18T06:56:20.310Z,102330.28
2022-10-18T06:58:47.100Z,102337.66
2022-10-18T07:01:16.913Z,102344.06
2022-10-18T07:03:46.388Z,102346.09
2022-10-18T07:06:16.348Z,102341.69
2022-10-18T07:08:44.129Z,102341.91
2022-10-18T07:11:25.074Z,102351.00
2022-10-18T07:13:54.510Z,102357.28
2022-10-18T07:16:21.602Z,102354.69
2022-10-18T07:18:51.484Z,102357.28
2022-10-18T07:21:22.427Z,102354.16
2022-10-18T07:23:50.667Z,102364.63
2022-10-18T07:26:29.109Z,102366.19
2022-10-18T07:29:08.606Z,102385.03
2022-10-18T07:31:36.283Z,102383.88
2022-10-18T07:34:08.434Z,102381.06
2022-10-18T07:36:35.428Z,102387.56
2022-10-18T07:39:02.698Z,102391.06
2022-10-18T07:41:30.103Z,102398.94
2022-10-18T07:43:56.813Z,102403.13
2022-10-18T07:46:23.599Z,102407.22
2022-10-18T07:48:51.651Z,102407.81
2022-10-18T07:51:20.597Z,102415.59
2022-10-18T07:53:48.026Z,102417.28
2022-10-18T07:56:21.365Z,102421.84
2022-10-18T07:58:52.626Z,102415.72
2022-10-18T08:01:22.313Z,102422.19
2022-10-18T08:03:49.998Z,102422.19
2022-10-18T08:06:19.768Z,102441.81
2022-10-18T08:08:47.191Z,102439.03
2022-10-18T08:11:17.348Z,102441.81
2022-10-18T08:13:44.782Z,102440.88
2022-10-18T08:16:16.229Z,102442.50
2022-10-18T08:18:43.264Z,102450.75
2022-10-18T08:21:13.211Z,102447.16
2022-10-18T08:23:40.294Z,102441.81
2022-10-18T08:26:17.624Z,102440.06
2022-10-18T08:28:53.670Z,102440.19
2022-10-18T08:31:30.682Z,102450.34
2022-10-18T08:33:57.702Z,102453.84
2022-10-18T08:36:25.050Z,102450.25
2022-10-18T08:38:52.173Z,102453.06
2022-10-18T08:42:14.189Z,102456.66
2022-10-18T08:44:52.381Z,102469.97
2022-10-18T08:47:36.518Z,102470.78
2022-10-18T08:50:20.605Z,102460.06
2022-10-18T08:53:40.413Z,102458.50
2022-10-18T08:56:14.918Z,102455.19
2022-10-18T08:58:44.786Z,102460.09
2022-10-18T09:01:44.795Z,102465.81
2022-10-18T09:04:49.365Z,102471.34
2022-10-18T09:07:40.653Z,102472.38
2022-10-18T09:10:45.753Z,102475.47
2022-10-18T09:14:32.891Z,102467.69
2022-10-18T09:17:43.338Z,102467.84
2022-10-18T09:20:31.952Z,102479.78
2022-10-18T09:23:21.098Z,102490.44
2022-10-18T09:25:56.075Z,102475.84
2022-10-18T09:28:49.865Z,102474.84
2022-10-18T09:31:37.108Z,102480.13
2022-10-18T09:34:26.728Z,102476.31
2022-10-18T09:36:54.753Z,102474.31
2022-10-18T09:39:37.858Z,102475.91
2022-10-18T09:42:17.843Z,102472.03
2022-10-18T09:44:53.604Z,102470.88
2022-10-18T09:47:38.028Z,102468.00
2022-10-18T09:50:48.917Z,102480.59
2022-10-18T09:53:26.812Z,102478.66
2022-10-18T09:56:10.165Z,102477.34
2022-10-18T09:58:46.424Z,102484.25
2022-10-18T10:01:22.712Z,102484.75
2022-10-18T10:03:49.476Z,102484.38
2022-10-18T10:06:26.885Z,102482.31
2022-10-18T10:09:15.953Z,102481.56
2022-10-18T10:11:49.565Z,102479.25
2022-10-18T10:14:30.345Z,102493.25
2022-10-18T10:17:06.999Z,102490.56
2022-10-18T10:20:05.260Z,102490.19
2022-10-18T10:22:39.036Z,102480.16
2022-10-18T10:25:08.050Z,102494.28
2022-10-18T10:27:44.175Z,102496.69
2022-10-18T10:30:27.369Z,102495.81
2022-10-18T10:32:56.052Z,102495.56
2022-10-18T10:35:53.380Z,102503.09
2022-10-18T10:38:29.962Z,102499.00
2022-10-18T10:40:57.761Z,102506.88
2022-10-18T10:43:39.188Z,102515.50
2022-10-18T10:46:19.360Z,102519.75
2022-10-18T10:49:00.366Z,102511.63
2022-10-18T10:51:40.185Z,102520.94
2022-10-18T10:54:17.652Z,102523.34
2022-10-18T10:57:21.854Z,102523.13
2022-10-18T11:00:02.068Z,102524.88
2022-10-18T11:02:36.798Z,102524.66
2022-10-18T11:05:25.172Z,102519.00
2022-10-18T11:08:02.311Z,102518.63
2022-10-18T11:10:39.918Z,102529.09
2022-10-18T11:13:43.184Z,102521.69
2022-10-18T11:16:24.722Z,102514.25
2022-10-18T11:18:56.916Z,102525.53
2022-10-18T11:21:32.381Z,102527.81
2022-10-18T11:24:03.116Z,102525.63
2022-10-18T11:26:58.423Z,102518.50
2022-10-18T11:29:40.938Z,102514.69
2022-10-18T11:32:34.128Z,102514.34
2022-10-18T11:35:34.669Z,102523.19
2022-10-18T11:38:31.344Z,102519.72
2022-10-18T11:41:40.060Z,102519.72
2022-10-18T11:44:57.198Z,102511.41
2022-10-18T11:48:16.667Z,102512.91
2022-10-18T11:51:13.814Z,102514.00
2022-10-18T11:54:22.711Z,102504.56
2022-10-18T11:57:26.045Z,102509.94
2022-10-18T12:00:23.656Z,102501.94
2022-10-18T12:03:25.756Z,102508.28
2022-10-18T12:05:57.156Z,102502.50
2022-10-18T12:08:45.965Z,102503.88
2022-10-18T12:11:33.758Z,102493.47
2022-10-18T12:14:21.422Z,102496.53
2022-10-18T12:16:53.602Z,102504.50
2022-10-18T12:19:33.426Z,102502.25
2022-10-18T12:22:27.106Z,102502.38
2022-10-18T12:24:54.176Z,102497.94
2022-10-18T12:27:39.551Z,102497.88
2022-10-18T12:30:42.265Z,102506.09
2022-10-18T12:33:28.191Z,102499.25
2022-10-18T12:36:22.285Z,102491.97
2022-10-18T12:39:03.077Z,102488.75
2022-10-18T12:41:36.100Z,102490.03
2022-10-18T12:44:19.639Z,102495.63
2022-10-18T12:46:55.018Z,102489.31
2022-10-18T12:49:29.705Z,102489.94
2022-10-18T12:52:21.414Z,102487.31
2022-10-18T12:55:26.227Z,102485.19
2022-10-18T12:57:52.866Z,102486.56
2022-10-18T13:00:31.512Z,102486.81
2022-10-18T13:03:10.226Z,102483.34
2022-10-18T13:05:54.465Z,102472.88
2022-10-18T13:08:27.480Z,102486.56
2022-10-18T13:11:12.237Z,102478.34
2022-10-18T13:13:57.333Z,102485.09
2022-10-18T13:16:38.682Z,102481.69
2022-10-18T13:20:02.961Z,102473.44
2022-10-18T13:23:05.083Z,102483.72
2022-10-18T13:26:04.948Z,102478.94
2022-10-18T13:29:04.795Z,102473.09
2022-10-18T13:32:48.069Z,102476.31
2022-10-18T13:36:23.042Z,102471.28
2022-10-18T13:38:50.490Z,102465.91
2022-10-18T13:44:03.364Z,102463.66
2022-10-18T13:46:33.067Z,102465.44
2022-10-18T13:49:05.608Z,102474.41
2022-10-18T13:51:46.512Z,102474.09
2022-10-18T13:54:56.423Z,102472.94
2022-10-18T13:57:41.005Z,102476.66
2022-10-18T14:00:32.446Z,102473.84
2022-10-18T14:03:57.023Z,102477.00
2022-10-18T14:06:33.597Z,102475.50
2022-10-18T14:12:46.062Z,102478.06
2022-10-18T14:15:28.622Z,102478.16
2022-10-18T14:18:15.439Z,102484.75
2022-10-18T14:21:12.242Z,102482.59
2022-10-18T14:23:46.981Z,102478.00
2022-10-18T14:26:19.663Z,102478.69
2022-10-18T14:29:06.826Z,102487.03
2022-10-18T14:31:35.088Z,102480.94
2022-10-18T14:34:03.413Z,102479.34
2022-10-18T14:36:41.462Z,102479.09
2022-10-18T14:39:19.687Z,102482.91
2022-10-18T14:41:53.719Z,102486.16
2022-10-18T14:44:25.316Z,102476.94
2022-10-18T14:47:16.591Z,102478.47
2022-10-18T14:49:45.929Z,102482.56
2022-10-18T14:52:24.059Z,102484.06
2022-10-18T14:54:56.725Z,102477.81
2022-10-18T14:57:31.221Z,102471.78
2022-10-18T15:00:03.239Z,102471.22
2022-10-18T15:02:35.662Z,102475.97
2022-10-18T15:05:24.410Z,102481.03
2022-10-18T15:07:53.155Z,102478.81
2022-10-18T15:10:28.982Z,102483.56
2022-10-18T15:13:09.895Z,102479.06
2022-10-18T15:15:39.000Z,102477.38
2022-10-18T15:18:08.320Z,102479.41
2022-10-18T15:20:42.619Z,102487.19
2022-10-18T15:23:31.274Z,102474.28
2022-10-18T15:26:07.909Z,102470.34
2022-10-18T15:28:53.706Z,102477.72
2022-10-18T15:31:35.304Z,102468.50
2022-10-18T15:34:17.982Z,102466.25
2022-10-18T15:36:45.763Z,102490.06
2022-10-18T15:39:22.978Z,102488.53
2022-10-18T15:41:54.261Z,102482.19
2022-10-18T15:44:50.989Z,102476.09
2022-10-18T15:47:21.705Z,102475.09
2022-10-18T15:49:54.570Z,102472.88
2022-10-18T15:52:41.514Z,102484.16
2022-10-18T15:55:29.978Z,102482.09
2022-10-18T15:58:32.049Z,102479.78
2022-10-18T16:01:04.326Z,102473.00
2022-10-18T16:03:36.336Z,102468.59
2022-10-18T16:06:07.702Z,102473.22
2022-10-18T16:08:45.621Z,102473.38
2022-10-18T16:11:25.522Z,102463.47
2022-10-18T16:13:55.279Z,102467.22
2022-10-18T16:16:28.251Z,102477.53
2022-10-18T16:18:55.924Z,102477.78
2022-10-18T16:21:33.891Z,102479.88
2022-10-18T16:24:01.370Z,102488.06
2022-10-18T16:26:28.675Z,102490.91
2022-10-18T16:28:57.272Z,102498.16
2022-10-18T16:31:28.934Z,102494.50
2022-10-18T16:33:56.836Z,102497.13
2022-10-18T16:36:33.483Z,102494.25
2022-10-18T16:39:07.705Z,102494.88
2022-10-18T16:41:34.441Z,102497.47
2022-10-18T16:44:01.193Z,102499.03
2022-10-18T16:46:32.627Z,102487.97
2022-10-18T16:49:01.026Z,102503.19
2022-10-18T16:51:28.121Z,102501.28
2022-10-18T16:53:55.435Z,102502.81
2022-10-18T16:56:27.751Z,102505.16
2022-10-18T16:58:55.175Z,102505.75
2022-10-18T17:01:24.101Z,102504.41
2022-10-18T17:03:52.230Z,102511.19
2022-10-18T17:06:30.546Z,102509.06
2022-10-18T17:08:58.663Z,102504.88
2022-10-18T17:11:29.684Z,102509.81
2022-10-18T17:13:56.524Z,102515.66
2022-10-18T17:19:04.830Z,102522.19
2022-10-18T17:21:33.494Z,102524.53
2022-10-18T17:24:05.907Z,102530.53
2022-10-18T17:26:33.675Z,102525.63
2022-10-18T17:29:06.515Z,102534.13
2022-10-18T17:31:35.779Z,102531.75
2022-10-18T17:34:03.075Z,102544.75
2022-10-18T17:36:33.805Z,102537.91
2022-10-18T17:39:00.614Z,102545.28
2022-10-18T17:41:27.525Z,102547.41
2022-10-18T17:43:54.309Z,102555.66
2022-10-18T17:46:21.165Z,102550.38
2022-10-18T17:48:48.013Z,102553.47
2022-10-18T17:51:17.383Z,102552.94
2022-10-18T17:53:44.871Z,102555.13
2022-10-18T17:56:13.066Z,102556.34
2022-10-18T17:58:43.138Z,102561.16
2022-10-18T18:01:15.713Z,102559.78
2022-10-18T18:03:43.045Z,102562.81
2022-10-18T18:06:33.529Z,102561.59
2022-10-18T18:09:07.441Z,102572.97
2022-10-18T18:11:37.330Z,102573.44
2022-10-18T18:14:09.730Z,102579.34
2022-10-18T18:16:41.475Z,102573.47
2022-10-18T18:19:10.266Z,102571.06
2022-10-18T18:21:38.360Z,102576.66
2022-10-18T18:24:05.545Z,102582.41
2022-10-18T18:26:34.567Z,102577.28
2022-10-18T18:31:36.979Z,102581.47
2022-10-18T18:34:07.049Z,102576.34
2022-10-18T18:36:33.866Z,102573.88
2022-10-18T18:39:00.837Z,102568.69
2022-10-18T18:41:28.999Z,102573.47
2022-10-18T18:44:02.534Z,102580.97
2022-10-18T18:46:34.236Z,102588.47
2022-10-18T18:49:01.014Z,102573.41
2022-10-18T18:51:28.073Z,102575.38
2022-10-18T18:53:54.946Z,102571.94
2022-10-18T18:56:25.298Z,102567.72
2022-10-18T18:58:53.601Z,102563.47
2022-10-18T19:01:27.255Z,102570.97
2022-10-18T19:03:56.270Z,102561.31
2022-10-18T19:06:39.425Z,102563.34
2022-10-18T19:09:19.677Z,102564.53
2022-10-18T19:11:49.491Z,102567.47
2022-10-18T19:14:16.340Z,102562.34
2022-10-18T19:16:53.896Z,102570.63
2022-10-18T19:19:25.123Z,102564.53
2022-10-18T19:22:01.706Z,102568.34
2022-10-18T19:24:32.943Z,102567.63
2022-10-18T19:27:09.648Z,102572.31
2022-10-18T19:29:39.177Z,102572.47
2022-10-18T19:32:12.072Z,102570.97
2022-10-18T19:34:39.442Z,102571.25
2022-10-18T19:37:06.184Z,102572.41
2022-10-18T19:39:34.969Z,102573.59
2022-10-18T19:42:06.944Z,102579.13
2022-10-18T19:44:36.246Z,102584.63
2022-10-18T19:47:10.013Z,102579.44
2022-10-18T19:49:37.246Z,102582.34
2022-10-18T19:52:04.672Z,102580.72
2022-10-18T19:54:31.734Z,102585.38
2022-10-18T19:56:58.455Z,102585.56
2022-10-18T19:59:25.331Z,102581.19
2022-10-18T20:01:52.521Z,102573.25
2022-10-18T20:04:19.384Z,102577.03
2022-10-18T20:06:46.410Z,102580.81
2022-10-18T20:09:17.803Z,102582.72
2022-10-18T20:11:47.336Z,102581.91
2022-10-18T20:14:14.101Z,102587.44
2022-10-18T20:16:41.185Z,102584.00
2022-10-18T20:19:08.491Z,102586.78
2022-10-18T20:21:36.409Z,102586.91
2022-10-18T20:24:05.674Z,102597.84
2022-10-18T20:26:33.650Z,102593.47
2022-10-18T20:29:00.524Z,102589.06
2022-10-18T20:31:38.311Z,102590.97
2022-10-18T20:34:10.431Z,102591.13
2022-10-18T20:36:37.945Z,102583.13
2022-10-18T20:39:05.652Z,102585.94
2022-10-18T20:41:36.802Z,102583.41
2022-10-18T20:44:13.298Z,102586.22
2022-10-18T20:46:40.873Z,102584.59
2022-10-18T20:49:10.754Z,102582.94
2022-10-18T20:51:37.505Z,102581.34
2022-10-18T20:54:06.725Z,102569.78
2022-10-18T20:56:36.497Z,102567.28
2022-10-18T20:59:06.122Z,102563.78
2022-10-18T21:01:35.580Z,102575.56
2022-10-18T21:04:06.443Z,102569.41
2022-10-18T21:06:37.652Z,102567.66
2022-10-18T21:09:12.721Z,102566.03
2022-10-18T21:11:42.735Z,102563.47
2022-10-18T21:14:16.532Z,102571.69
2022-10-18T21:16:44.158Z,102571.00
2022-10-18T21:19:14.453Z,102563.00
2022-10-18T21:21:44.468Z,102568.56
2022-10-18T21:24:13.324Z,102565.91
2022-10-18T21:26:40.749Z,102564.25
2022-10-18T21:29:08.128Z,102561.63
2022-10-18T21:31:39.224Z,102551.88
2022-10-18T21:34:18.307Z,102547.47
2022-10-18T21:36:48.122Z,102550.38
2022-10-18T21:41:54.197Z,102555.06
2022-10-18T21:44:21.108Z,102556.97
2022-10-18T21:46:47.974Z,102551.63
2022-10-18T21:49:16.112Z,102549.94
2022-10-18T21:51:44.388Z,102557.19
2022-10-18T21:54:16.091Z,102556.38
2022-10-18T21:56:43.748Z,102557.44
2022-10-18T21:59:12.654Z,102551.22
2022-10-18T22:01:40.268Z,102553.16
2022-10-18T22:04:18.277Z,102552.41
2022-10-18T22:06:44.976Z,102557.91
2022-10-18T22:09:11.841Z,102552.66
2022-10-18T22:11:47.731Z,102552.78
2022-10-18T22:14:14.566Z,102549.25
2022-10-18T22:16:41.412Z,102551.13
2022-10-18T22:19:08.671Z,102549.47
2022-10-18T22:21:36.026Z,102548.75
2022-10-18T22:24:08.680Z,102557.75
2022-10-18T22:26:39.495Z,102557.00
2022-10-18T22:29:11.919Z,102557.09
2022-10-18T22:31:45.476Z,102562.63
2022-10-18T22:34:17.050Z,102557.34
2022-10-18T22:36:43.858Z,102555.72
2022-10-18T22:39:14.316Z,102559.44
2022-10-18T22:41:42.400Z,102552.41
2022-10-18T22:44:14.685Z,102552.53
2022-10-18T22:46:42.815Z,102551.69
2022-10-18T22:49:11.580Z,102563.44
2022-10-18T22:51:38.415Z,102558.03
2022-10-18T22:54:05.236Z,102551.00
2022-10-18T22:56:32.015Z,102561.03
2022-10-18T22:58:58.768Z,102562.94
2022-10-18T23:01:25.678Z,102568.44
2022-10-18T23:03:54.445Z,102557.75
2022-10-18T23:06:29.133Z,102560.59
2022-10-18T23:08:58.513Z,102559.78
2022-10-18T23:11:27.753Z,102561.69
2022-10-18T23:13:54.958Z,102547.44
2022-10-18T23:16:22.589Z,102548.38
2022-10-18T23:18:56.096Z,102552.97
2022-10-18T23:21:25.357Z,102555.72
2022-10-18T23:23:53.912Z,102550.38
2022-10-18T23:26:24.355Z,102559.47
2022-10-18T23:28:53.721Z,102558.66
2022-10-18T23:31:31.694Z,102554.31
2022-10-18T23:34:02.501Z,102553.50
2022-10-18T23:36:30.941Z,102556.28
2022-10-18T23:38:58.323Z,102557.19
2022-10-18T23:41:26.387Z,102552.75
2022-10-18T23:43:53.351Z,102560.03
2022-10-18T23:46:21.015Z,102557.38
2022-10-18T23:48:48.463Z,102554.72
2022-10-18T23:51:16.191Z,102556.66
2022-10-18T23:53:43.354Z,102553.09
2022-10-18T23:56:16.007Z,102560.34
2022-10-18T23:58:44.592Z,102549.56
